Bata — UBAP3 — position and weather

sailwx.info

Track history (hours):
 
Tides and Currents Weather Stations Pressure Air Temp Water Temp Dewpoint Dewpoint Depression Visibility Wind Speed Wind Dir Waves Ship Positions

Bata

Last reported at 2018-Aug-13 15:45 UTC. Time now 2018-Aug-14 07:00 UTC.
Position N 45°19' E 036°33'.

Length 22 m; draft 1.9 m.

Type: Pilot. MMSI: 273397680.

Date/timePositionNaut miles runAvg speedWind from/ knotsBaromVisibWave heightAir tempDewpointWater temp
2018-Aug-13 15:45N 45°19' E 036°33'2 7.4
2018-Aug-13 15:30N 45°19' E 036°35'4 8.1
2018-Aug-13 15:00N 45°22' E 036°40'0 0.7
2018-Aug-13 14:27N 45°21' E 036°40'0 0.9
2018-Aug-13 14:00N 45°21' E 036°40'1 1.2
2018-Aug-13 13:24N 45°20' E 036°40'0 0.0
2018-Aug-13 11:37N 45°20' E 036°40'1 7.3
2018-Aug-13 11:30N 45°21' E 036°40'1 1.5
2018-Aug-13 10:59N 45°20' E 036°40'0 0.0
2018-Aug-13 10:30N 45°20' E 036°40'0 0.0
2018-Aug-13 10:00N 45°20' E 036°40'0 0.0
2018-Aug-13 09:30N 45°20' E 036°40'0 0.0
2018-Aug-13 08:59N 45°20' E 036°40'0 0.0
2018-Aug-13 08:30N 45°20' E 036°40'0 0.0
2018-Aug-13 08:00N 45°20' E 036°40'0 0.0
2018-Aug-13 07:30N 45°20' E 036°40'0 0.0
2018-Aug-13 07:00N 45°20' E 036°40'0 0.0
2018-Aug-13 06:31N 45°20' E 036°40'0 0.0
2018-Aug-13 06:00N 45°20' E 036°40'0 0.0
2018-Aug-13 05:29N 45°20' E 036°40'0 0.0
2018-Aug-13 05:00N 45°20' E 036°40'0 0.0
2018-Aug-13 04:29N 45°20' E 036°40'0 0.0
2018-Aug-13 03:59N 45°20' E 036°40'0 0.0
2018-Aug-13 03:30N 45°20' E 036°40'0 0.0
2018-Aug-13 03:00N 45°20' E 036°40'0 0.0
2018-Aug-13 02:30N 45°20' E 036°40'0 0.0
2018-Aug-13 01:58N 45°20' E 036°40'0 0.0
2018-Aug-13 01:29N 45°20' E 036°40'0 0.0
2018-Aug-13 01:00N 45°20' E 036°40'0 0.0
2018-Aug-13 00:29N 45°20' E 036°40'0 0.0
2018-Aug-12 23:56N 45°20' E 036°40'0 0.0
2018-Aug-12 23:28N 45°20' E 036°40'0 0.0
2018-Aug-12 22:59N 45°20' E 036°40'0 0.0
2018-Aug-12 22:27N 45°20' E 036°40'0 0.0
2018-Aug-12 21:59N 45°20' E 036°40'0 0.0
2018-Aug-12 21:27N 45°20' E 036°40'0 0.0
2018-Aug-12 21:00N 45°20' E 036°40'0 0.0
2018-Aug-12 20:28N 45°20' E 036°40'0 0.0
2018-Aug-12 19:59N 45°20' E 036°40'0 0.3
2018-Aug-12 19:29N 45°20' E 036°40'0 0.3
2018-Aug-12 19:00N 45°20' E 036°40'0 0.0
2018-Aug-12 18:30N 45°20' E 036°40'0 0.0
2018-Aug-12 18:00N 45°20' E 036°40'0 0.0
2018-Aug-12 17:30N 45°20' E 036°40'0 0.0
2018-Aug-12 17:01N 45°20' E 036°40'1 2.3
2018-Aug-12 16:31N 45°21' E 036°39'1 2.3
2018-Aug-12 16:01N 45°20' E 036°40'0 0.0
2018-Aug-12 15:31N 45°20' E 036°40'0 0.0
2018-Aug-12 14:59N 45°20' E 036°40'0 0.0
2018-Aug-12 14:30N 45°20' E 036°40'0 0.0
2018-Aug-12 13:59N 45°20' E 036°40'0 0.0
2018-Aug-12 13:30N 45°20' E 036°40'1 2.0
2018-Aug-12 13:01N 45°21' E 036°39'0 0.8
2018-Aug-12 12:30N 45°20' E 036°38'0 0.4
2018-Aug-12 12:01N 45°20' E 036°39'0 0.0
2018-Aug-12 11:30N 45°20' E 036°39'1 1.0
2018-Aug-12 11:01N 45°20' E 036°38'0 0.4
2018-Aug-12 10:30N 45°20' E 036°38'2 3.1
2018-Aug-12 10:00N 45°20' E 036°40'0 0.0
2018-Aug-12 09:30N 45°20' E 036°40'0 0.0
2018-Aug-12 09:00N 45°20' E 036°40'0 0.0
2018-Aug-12 08:30N 45°20' E 036°40'2 3.6
2018-Aug-12 08:00N 45°20' E 036°38'0 0.7
2018-Aug-12 07:30N 45°20' E 036°38'0 1.0
2018-Aug-12 07:01N 45°21' E 036°39'1 1.9
2018-Aug-12 06:27N 45°20' E 036°40'0 0.0
2018-Aug-12 06:00N 45°20' E 036°40'0 0.0
2018-Aug-12 05:30N 45°20' E 036°40'0 0.0
2018-Aug-12 05:00N 45°20' E 036°40'0 0.0
2018-Aug-12 04:30N 45°20' E 036°40'2 3.9
2018-Aug-12 04:00N 45°20' E 036°38'2 3.8
2018-Aug-12 03:30N 45°20' E 036°40'0 0.0
2018-Aug-12 03:00N 45°20' E 036°40'0 0.0
2018-Aug-12 02:30N 45°20' E 036°40'0 0.0
2018-Aug-12 02:00N 45°20' E 036°40'0 0.0
2018-Aug-12 01:30N 45°20' E 036°40'0 0.0
2018-Aug-12 01:00N 45°20' E 036°40'0 0.0
2018-Aug-12 00:30N 45°20' E 036°40'0 0.0
2018-Aug-12 00:00N 45°20' E 036°40'0 0.0
2018-Aug-11 23:30N 45°20' E 036°40'0 0.0
2018-Aug-11 23:00N 45°20' E 036°40'0 0.0
2018-Aug-11 22:30N 45°20' E 036°40'0 0.0
2018-Aug-11 22:00N 45°20' E 036°40'0 0.0
2018-Aug-11 21:30N 45°20' E 036°40'0 0.0
2018-Aug-11 21:00N 45°20' E 036°40'0 0.0
2018-Aug-11 20:30N 45°20' E 036°40'0 0.0
2018-Aug-11 20:00N 45°20' E 036°40'0 0.0
2018-Aug-11 19:30N 45°20' E 036°40'0 0.0
2018-Aug-11 19:00N 45°20' E 036°40'0 0.0
2018-Aug-11 18:30N 45°20' E 036°40'0 0.0
2018-Aug-11 18:00N 45°20' E 036°40'0 0.0
2018-Aug-11 17:30N 45°20' E 036°40'0 0.0
2018-Aug-11 17:00N 45°20' E 036°40'0 0.0
2018-Aug-11 16:30N 45°20' E 036°40'0 0.0
2018-Aug-11 16:00N 45°20' E 036°40'0 0.0
2018-Aug-11 15:30N 45°20' E 036°40'0 0.0
2018-Aug-11 15:00N 45°20' E 036°40'0 0.0
2018-Aug-11 14:30N 45°20' E 036°40'0 0.0
2018-Aug-11 14:00N 45°20' E 036°40'0 0.0
2018-Aug-11 13:30N 45°20' E 036°40'0 0.0
2018-Aug-11 13:00N 45°20' E 036°40'0 0.0
2018-Aug-11 12:29N 45°20' E 036°40'0 0.0
2018-Aug-11 12:00N 45°20' E 036°40'0 0.0
2018-Aug-11 11:30N 45°20' E 036°40'0 0.0
2018-Aug-11 11:00N 45°20' E 036°40'0 0.0
2018-Aug-11 10:30N 45°20' E 036°40'0 0.0
2018-Aug-11 09:59N 45°20' E 036°40'0 0.0
2018-Aug-11 09:30N 45°20' E 036°40'0 0.0
2018-Aug-11 09:00N 45°20' E 036°40'0 0.0
2018-Aug-11 08:30N 45°20' E 036°40'0 0.0
2018-Aug-11 08:00N 45°20' E 036°40'0 0.0
2018-Aug-11 07:30N 45°20' E 036°40'0 0.0
2018-Aug-11 07:00N 45°20' E 036°40'0 0.0
2018-Aug-11 06:28N 45°20' E 036°40'0 0.0
2018-Aug-11 06:00N 45°20' E 036°40'0 0.0
2018-Aug-11 05:28N 45°20' E 036°40'0 0.0
2018-Aug-11 05:00N 45°20' E 036°40'0 0.0
2018-Aug-11 04:26N 45°20' E 036°40'0 0.0
2018-Aug-11 04:00N 45°20' E 036°40'0 0.0
2018-Aug-11 03:30N 45°20' E 036°40'0 0.0
2018-Aug-11 03:00N 45°20' E 036°40'0 0.0
2018-Aug-11 02:30N 45°20' E 036°40'0 0.0
2018-Aug-11 02:00N 45°20' E 036°40'0 0.0
2018-Aug-11 01:27N 45°20' E 036°40'0 0.0
2018-Aug-11 01:00N 45°20' E 036°40'0 0.0
2018-Aug-11 00:30N 45°20' E 036°40'0 0.0
2018-Aug-11 00:00N 45°20' E 036°40'0 0.0
2018-Aug-10 23:30N 45°20' E 036°40'0 0.0
2018-Aug-10 23:00N 45°20' E 036°40'0 0.0
2018-Aug-10 22:30N 45°20' E 036°40'0 0.0
2018-Aug-10 22:00N 45°20' E 036°40'0 0.0
2018-Aug-10 21:30N 45°20' E 036°40'0 0.0
2018-Aug-10 21:00N 45°20' E 036°40'0 0.0
2018-Aug-10 20:30N 45°20' E 036°40'0 0.0
2018-Aug-10 20:00N 45°20' E 036°40'0 0.0
2018-Aug-10 19:28N 45°20' E 036°40'0 0.0
2018-Aug-10 19:01N 45°20' E 036°40'0 0.0
2018-Aug-10 18:30N 45°20' E 036°40'0 0.0
2018-Aug-10 18:01N 45°20' E 036°40'0 0.0
2018-Aug-10 17:30N 45°20' E 036°40'0 0.0
2018-Aug-10 17:00N 45°20' E 036°40'0 0.0
2018-Aug-10 16:30N 45°20' E 036°40'0 0.0
2018-Aug-10 16:01N 45°20' E 036°40'0 0.0
2018-Aug-10 15:30N 45°20' E 036°40'0 0.0
2018-Aug-10 15:01N 45°20' E 036°40'0 0.0
2018-Aug-10 14:30N 45°20' E 036°40'0 0.0
2018-Aug-10 13:59N 45°20' E 036°40'0 0.0
2018-Aug-10 13:31N 45°20' E 036°40'0 0.0
2018-Aug-10 13:00N 45°20' E 036°40'0 0.0
2018-Aug-10 12:31N 45°20' E 036°40'0 0.0
2018-Aug-10 12:00N 45°20' E 036°40'0 0.0
2018-Aug-10 11:31N 45°20' E 036°40'0 0.0
2018-Aug-10 11:01N 45°20' E 036°40'0 0.0
2018-Aug-10 10:30N 45°20' E 036°40'0 0.0
2018-Aug-10 10:00N 45°20' E 036°40'0 0.0
2018-Aug-10 09:30N 45°20' E 036°40'0 0.0
2018-Aug-10 08:59N 45°20' E 036°40'0 0.0
2018-Aug-10 08:30N 45°20' E 036°40'0 0.0
2018-Aug-10 08:00N 45°20' E 036°40'0 0.0
2018-Aug-10 07:30N 45°20' E 036°40'0 0.0
2018-Aug-10 07:00N 45°20' E 036°40'0 0.0
2018-Aug-10 06:30N 45°20' E 036°40'0 0.0
2018-Aug-10 06:00N 45°20' E 036°40'0 0.0
2018-Aug-10 05:30N 45°20' E 036°40'0 0.0
2018-Aug-10 05:01N 45°20' E 036°40'0 0.0
2018-Aug-10 04:30N 45°20' E 036°40'0 0.0
2018-Aug-10 04:00N 45°20' E 036°40'0 0.0
2018-Aug-10 03:30N 45°20' E 036°40'0 0.0
2018-Aug-10 03:00N 45°20' E 036°40'0 0.0
2018-Aug-10 02:30N 45°20' E 036°40'0 0.0
2018-Aug-10 02:00N 45°20' E 036°40'0 0.0
2018-Aug-10 01:30N 45°20' E 036°40'0 0.0
2018-Aug-10 01:00N 45°20' E 036°40'0 0.0
2018-Aug-10 00:30N 45°20' E 036°40'0 0.0
2018-Aug-10 00:01N 45°20' E 036°40'0 0.0
2018-Aug-09 23:30N 45°20' E 036°40'0 0.0
2018-Aug-09 23:01N 45°20' E 036°40'0 0.0
2018-Aug-09 22:28N 45°20' E 036°40'0 0.0
2018-Aug-09 21:59N 45°20' E 036°40'0 0.0
2018-Aug-09 21:29N 45°20' E 036°40'0 0.0
2018-Aug-09 21:01N 45°20' E 036°40'0 0.0
2018-Aug-09 20:30N 45°20' E 036°40'0 0.0
2018-Aug-09 20:00N 45°20' E 036°40'0 0.0
2018-Aug-09 19:27N 45°20' E 036°40'0 0.0
2018-Aug-09 19:00N 45°20' E 036°40'0 0.0
2018-Aug-09 18:30N 45°20' E 036°40'0 0.0
2018-Aug-09 18:00N 45°20' E 036°40'0 0.0
2018-Aug-09 17:30N 45°20' E 036°40'0 0.0
2018-Aug-09 17:00N 45°20' E 036°40'0 0.0
2018-Aug-09 16:30N 45°20' E 036°40'0 0.0
2018-Aug-09 16:01N 45°20' E 036°40'0 0.0
2018-Aug-09 15:31N 45°20' E 036°40'0 0.0
2018-Aug-09 15:00N 45°20' E 036°40'0 0.0
2018-Aug-09 14:30N 45°20' E 036°40'0 0.0
2018-Aug-09 14:00N 45°20' E 036°40'0 0.0
2018-Aug-09 13:30N 45°20' E 036°40'0 0.0
2018-Aug-09 13:00N 45°20' E 036°40'0 0.0
2018-Aug-09 12:30N 45°20' E 036°40'0 0.0
2018-Aug-09 12:00N 45°20' E 036°40'0 0.0
2018-Aug-09 11:30N 45°20' E 036°40'0 0.0
2018-Aug-09 11:00N 45°20' E 036°40'0 0.0
2018-Aug-09 10:30N 45°20' E 036°40'0 0.0
2018-Aug-09 10:00N 45°20' E 036°40'0 0.0
2018-Aug-09 09:30N 45°20' E 036°40'0 0.0
2018-Aug-09 09:00N 45°20' E 036°40'0 0.0
2018-Aug-09 08:29N 45°20' E 036°40'0 0.0
2018-Aug-09 07:59N 45°20' E 036°40'0 0.0
2018-Aug-09 07:28N 45°20' E 036°40'0 0.0
2018-Aug-09 07:00N 45°20' E 036°40'0 0.0
2018-Aug-09 06:23N 45°20' E 036°40'0 0.0
2018-Aug-09 05:58N 45°20' E 036°40'0 0.0
2018-Aug-09 05:29N 45°20' E 036°40'0 0.0
2018-Aug-09 04:58N 45°20' E 036°40'0 0.0
2018-Aug-09 04:30N 45°20' E 036°40'0 0.0
2018-Aug-09 03:58N 45°20' E 036°40'0 0.0
2018-Aug-09 03:27N 45°20' E 036°40'0 0.0
2018-Aug-09 00:44N 45°20' E 036°40'0 0.0
2018-Aug-09 00:28N 45°20' E 036°40'0 0.0
2018-Aug-09 00:00N 45°20' E 036°40'0 0.0
2018-Aug-08 23:25N 45°20' E 036°40'0 0.0
2018-Aug-08 22:48N 45°20' E 036°40'0 0.0
2018-Aug-08 22:27N 45°20' E 036°40'0 0.0
2018-Aug-08 22:00N 45°20' E 036°40'0 0.1
2018-Aug-08 21:28N 45°20' E 036°40'0 0.1
2018-Aug-08 20:50N 45°20' E 036°40'0 0.0
2018-Aug-08 20:28N 45°20' E 036°40'0 0.0
2018-Aug-08 19:59N 45°20' E 036°40'0 0.0
2018-Aug-08 19:30N 45°20' E 036°40'0 0.0
2018-Aug-08 19:01N 45°20' E 036°40'0 0.0
2018-Aug-08 18:31N 45°20' E 036°40'0 0.0
2018-Aug-08 18:00N 45°20' E 036°40'0 0.0
2018-Aug-08 17:30N 45°20' E 036°40'0 0.0
2018-Aug-08 17:00N 45°20' E 036°40'0 0.0
2018-Aug-08 16:29N 45°20' E 036°40'0 0.0
2018-Aug-08 16:00N 45°20' E 036°40'0 0.0
2018-Aug-08 15:30N 45°20' E 036°40'0 0.0
2018-Aug-08 15:01N 45°20' E 036°40'0 0.0
2018-Aug-08 14:30N 45°20' E 036°40'0 0.0
2018-Aug-08 14:00N 45°20' E 036°40'0 0.2
2018-Aug-08 13:30N 45°20' E 036°40'0 0.2
2018-Aug-08 13:00N 45°20' E 036°40'0 0.0
2018-Aug-08 12:29N 45°20' E 036°40'0 0.0
2018-Aug-08 11:47N 45°20' E 036°40'0 0.0
2018-Aug-08 11:30N 45°20' E 036°40'0 0.0
2018-Aug-08 10:48N 45°20' E 036°40'1 1.9
2018-Aug-08 10:30N 45°21' E 036°40'2 3.0
2018-Aug-08 10:01N 45°20' E 036°38'2 3.3
2018-Aug-08 09:28N 45°20' E 036°40'0 0.0
2018-Aug-08 09:01N 45°20' E 036°40'0 0.0
2018-Aug-08 08:30N 45°20' E 036°40'0 0.0
2018-Aug-08 08:00N 45°20' E 036°40'0 0.0
2018-Aug-08 07:30N 45°20' E 036°40'0 0.0
2018-Aug-08 06:58N 45°20' E 036°40'0 0.0
2018-Aug-08 06:30N 45°20' E 036°40'0 0.0
2018-Aug-08 06:00N 45°20' E 036°40'0 0.0
2018-Aug-08 05:30N 45°20' E 036°40'0 0.0
2018-Aug-08 05:00N 45°20' E 036°40'1 1.0
2018-Aug-08 04:30N 45°21' E 036°40'1 1.0
2018-Aug-08 03:58N 45°20' E 036°40'0 0.0
2018-Aug-08 03:27N 45°20' E 036°40'1 1.5
2018-Aug-08 03:01N 45°21' E 036°40'1 1.3
2018-Aug-08 02:30N 45°20' E 036°40'0 0.0
2018-Aug-08 01:59N 45°20' E 036°40'0 0.0
2018-Aug-08 01:30N 45°20' E 036°40'0 0.0
2018-Aug-08 00:54N 45°20' E 036°40'0 0.0
2018-Aug-08 00:30N 45°20' E 036°40'0 0.0
2018-Aug-08 00:00N 45°20' E 036°40'0 0.0
2018-Aug-07 23:28N 45°20' E 036°40'0 0.0
2018-Aug-07 22:59N 45°20' E 036°40'0 0.0
2018-Aug-07 22:31N 45°20' E 036°40'0 0.0
2018-Aug-07 22:00N 45°20' E 036°40'0 0.0
2018-Aug-07 21:30N 45°20' E 036°40'0 0.0
2018-Aug-07 21:00N 45°20' E 036°40'0 0.0
2018-Aug-07 20:30N 45°20' E 036°40'0 0.0
2018-Aug-07 19:55N 45°20' E 036°40'0 0.0
2018-Aug-07 19:26N 45°20' E 036°40'0 0.0
2018-Aug-07 19:01N 45°20' E 036°40'0 0.0
2018-Aug-07 18:30N 45°20' E 036°40'0 0.0
2018-Aug-07 18:01N 45°20' E 036°40'0 0.0
2018-Aug-07 17:30N 45°20' E 036°40'0 0.0
2018-Aug-07 17:00N 45°20' E 036°40'0 0.0
2018-Aug-07 16:29N 45°20' E 036°40'1 2.1
2018-Aug-07 16:00N 45°21' E 036°40'0 0.9
2018-Aug-07 15:30N 45°21' E 036°40'1 1.3
2018-Aug-07 14:59N 45°20' E 036°40'0 0.0
2018-Aug-07 14:30N 45°20' E 036°40'0 0.0
2018-Aug-07 14:00N 45°20' E 036°40'0 0.0
2018-Aug-07 13:30N 45°20' E 036°40'0 0.0
2018-Aug-07 12:59N 45°20' E 036°40'0 0.0
2018-Aug-07 12:28N 45°20' E 036°40'0 0.0
2018-Aug-07 11:59N 45°20' E 036°40'0 0.0
2018-Aug-07 11:30N 45°20' E 036°40'0 0.0
2018-Aug-07 11:00N 45°20' E 036°40'0 0.0
2018-Aug-07 10:30N 45°20' E 036°40'0 0.0
2018-Aug-07 10:00N 45°20' E 036°40'0 0.0
2018-Aug-07 09:30N 45°20' E 036°40'0 0.0
2018-Aug-07 08:59N 45°20' E 036°40'0 0.0
2018-Aug-07 08:30N 45°20' E 036°40'0 0.0
2018-Aug-07 08:01N 45°20' E 036°40'0 0.0
2018-Aug-07 07:30N 45°20' E 036°40'0 0.0
2018-Aug-07 06:58N 45°20' E 036°40'0 0.0
2018-Aug-07 06:30N 45°20' E 036°40'0 0.0
2018-Aug-07 05:59N 45°20' E 036°40'0 0.0
2018-Aug-07 05:30N 45°20' E 036°40'0 0.0
2018-Aug-07 04:59N 45°20' E 036°40'0 0.0
2018-Aug-07 04:29N 45°20' E 036°40'0 0.0
2018-Aug-07 03:57N 45°20' E 036°40'0 0.0
2018-Aug-07 03:29N 45°20' E 036°40'0 0.0
2018-Aug-07 02:46N 45°20' E 036°40'0 0.0
2018-Aug-07 02:17N 45°20' E 036°40'1 4.4
2018-Aug-07 02:00N 45°22' E 036°40'0 0.3
2018-Aug-07 01:30N 45°21' E 036°40'1 1.9
2018-Aug-07 00:53N 45°20' E 036°40'0 0.0
2018-Aug-07 00:30N 45°20' E 036°40'0 0.0
2018-Aug-07 00:00N 45°20' E 036°40'0 0.0
2018-Aug-06 23:30N 45°20' E 036°40'0 0.0
2018-Aug-06 23:01N 45°20' E 036°40'0 0.9
2018-Aug-06 22:30N 45°21' E 036°40'0 0.8
2018-Aug-06 22:00N 45°21' E 036°40'1 1.6
2018-Aug-06 21:31N 45°20' E 036°40'0 0.0
2018-Aug-06 21:00N 45°20' E 036°40'0 0.0
2018-Aug-06 20:30N 45°20' E 036°40'0 0.0
2018-Aug-06 20:00N 45°20' E 036°40'0 0.0
2018-Aug-06 19:30N 45°20' E 036°40'0 0.0
2018-Aug-06 19:00N 45°20' E 036°40'0 0.0
2018-Aug-06 18:30N 45°20' E 036°40'0 0.0
2018-Aug-06 18:00N 45°20' E 036°40'0 0.0
2018-Aug-06 17:28N 45°20' E 036°40'0 0.0
2018-Aug-06 16:57N 45°20' E 036°40'0 0.0
2018-Aug-06 16:30N 45°20' E 036°40'0 0.0
2018-Aug-06 16:00N 45°20' E 036°40'0 0.0
2018-Aug-06 15:30N 45°20' E 036°40'0 0.0
2018-Aug-06 15:00N 45°20' E 036°40'0 0.0
2018-Aug-06 14:31N 45°20' E 036°40'0 0.0
2018-Aug-06 14:00N 45°20' E 036°40'0 0.0
2018-Aug-06 13:30N 45°20' E 036°40'0 0.0
2018-Aug-06 13:00N 45°20' E 036°40'1 1.2
2018-Aug-06 12:30N 45°21' E 036°40'1 1.7
2018-Aug-06 12:00N 45°21' E 036°39'0 0.1
2018-Aug-06 11:30N 45°21' E 036°39'1 2.2
2018-Aug-06 11:00N 45°20' E 036°40'0 0.0
2018-Aug-06 10:30N 45°20' E 036°40'0 0.0
2018-Aug-06 10:00N 45°20' E 036°40'0 0.0
2018-Aug-06 09:30N 45°20' E 036°40'0 0.0
2018-Aug-06 09:00N 45°20' E 036°40'0 0.0
2018-Aug-06 08:30N 45°20' E 036°40'0 0.0
2018-Aug-06 08:00N 45°20' E 036°40'0 0.0
2018-Aug-06 07:30N 45°20' E 036°40'0 0.0
2018-Aug-06 07:00N 45°20' E 036°40'0 0.0
2018-Aug-06 06:30N 45°20' E 036°40'0 0.0
2018-Aug-06 06:00N 45°20' E 036°40'0 0.0
2018-Aug-06 05:30N 45°20' E 036°40'0 0.0
2018-Aug-06 05:00N 45°20' E 036°40'0 0.0
2018-Aug-06 04:30N 45°20' E 036°40'1 2.2
2018-Aug-06 04:00N 45°21' E 036°39'1 2.1
2018-Aug-06 03:30N 45°20' E 036°40'0 0.1
2018-Aug-06 02:58N 45°20' E 036°40'0 0.0
2018-Aug-06 02:30N 45°20' E 036°40'0 0.0
2018-Aug-06 02:00N 45°20' E 036°40'0 0.0
2018-Aug-06 01:29N 45°20' E 036°40'0 0.0
2018-Aug-06 01:00N 45°20' E 036°40'0 0.0
2018-Aug-06 00:30N 45°20' E 036°40'1 1.7
2018-Aug-06 00:00N 45°21' E 036°39'1 1.6
2018-Aug-05 23:27N 45°20' E 036°40'0 0.0
2018-Aug-05 22:52N 45°20' E 036°40'0 0.0
2018-Aug-05 22:29N 45°20' E 036°40'0 0.0
2018-Aug-05 22:00N 45°20' E 036°40'1 1.8
2018-Aug-05 21:31N 45°21' E 036°40'1 1.3
2018-Aug-05 20:51N 45°20' E 036°40'0 0.0
2018-Aug-05 20:29N 45°20' E 036°40'0 0.0
2018-Aug-05 20:00N 45°20' E 036°40'0 0.0
2018-Aug-05 19:28N 45°20' E 036°40'0 0.0
2018-Aug-05 18:39N 45°20' E 036°40'0 0.0
2018-Aug-05 18:30N 45°20' E 036°40'0 0.0
2018-Aug-05 18:00N 45°20' E 036°40'0 0.0
2018-Aug-05 17:30N 45°20' E 036°40'1 1.4
2018-Aug-05 17:00N 45°21' E 036°40'1 1.4
2018-Aug-05 16:30N 45°20' E 036°40'0 0.0
2018-Aug-05 16:00N 45°20' E 036°40'0 0.0
2018-Aug-05 15:30N 45°20' E 036°40'0 0.0
2018-Aug-05 15:00N 45°20' E 036°40'0 0.0
2018-Aug-05 14:30N 45°20' E 036°40'0 0.0
2018-Aug-05 13:30N 45°20' E 036°40'0 0.0
2018-Aug-05 13:00N 45°20' E 036°40'0 0.0
2018-Aug-05 12:30N 45°20' E 036°40'0 0.0
2018-Aug-05 12:00N 45°20' E 036°40'0 0.0
2018-Aug-05 11:30N 45°20' E 036°40'0 0.0
2018-Aug-05 10:59N 45°20' E 036°40'0 0.0
2018-Aug-05 10:30N 45°20' E 036°40'0 0.0
2018-Aug-05 10:00N 45°20' E 036°40'0 0.0
2018-Aug-05 09:30N 45°20' E 036°40'0 0.3
2018-Aug-05 09:00N 45°20' E 036°40'0 0.1
2018-Aug-05 08:31N 45°20' E 036°40'2 3.1
2018-Aug-05 08:00N 45°22' E 036°42'0 0.0
2018-Aug-05 07:30N 45°22' E 036°42'1 2.0
2018-Aug-05 07:00N 45°21' E 036°40'1 2.2
2018-Aug-05 06:29N 45°20' E 036°40'0 0.0
2018-Aug-05 06:00N 45°20' E 036°40'1 1.5
2018-Aug-05 05:30N 45°21' E 036°40'0 0.6
2018-Aug-05 05:00N 45°21' E 036°40'1 1.7
2018-Aug-05 04:30N 45°20' E 036°40'0 0.0
2018-Aug-05 03:59N 45°20' E 036°40'0 0.0
2018-Aug-05 03:23N 45°20' E 036°40'0 0.0
2018-Aug-05 02:55N 45°20' E 036°40'0 0.0
2018-Aug-05 02:29N 45°20' E 036°40'0 0.0
2018-Aug-05 01:48N 45°20' E 036°40'0 0.0
2018-Aug-05 01:27N 45°20' E 036°40'0 0.0
2018-Aug-05 01:00N 45°20' E 036°40'0 0.0
2018-Aug-05 00:30N 45°20' E 036°40'0 0.0
2018-Aug-05 00:00N 45°20' E 036°40'0 0.0
2018-Aug-04 23:28N 45°20' E 036°40'0 0.0
2018-Aug-04 22:47N 45°20' E 036°40'0 0.0
2018-Aug-04 22:27N 45°20' E 036°40'0 0.0
2018-Aug-04 22:00N 45°20' E 036°40'0 0.0
2018-Aug-04 21:30N 45°20' E 036°40'0 0.0
2018-Aug-04 21:00N 45°20' E 036°40'0 0.0
2018-Aug-04 20:21N 45°20' E 036°40'0 0.0
2018-Aug-04 19:58N 45°20' E 036°40'0 0.0
2018-Aug-04 19:30N 45°20' E 036°40'0 0.0
2018-Aug-04 19:00N 45°20' E 036°40'0 0.0
2018-Aug-04 16:54N 45°20' E 036°40'0 0.0
2018-Aug-04 16:28N 45°20' E 036°40'1 2.0
2018-Aug-04 16:00N 45°21' E 036°41'1 1.4
2018-Aug-04 15:30N 45°21' E 036°40'0 0.8
2018-Aug-04 15:00N 45°20' E 036°40'0 0.0
2018-Aug-04 14:30N 45°20' E 036°40'0 0.0
2018-Aug-04 14:00N 45°20' E 036°40'0 0.0
2018-Aug-04 13:30N 45°20' E 036°40'0 0.0
2018-Aug-04 13:00N 45°20' E 036°40'0 0.0
2018-Aug-04 12:30N 45°20' E 036°40'0 0.0
2018-Aug-04 12:00N 45°20' E 036°40'0 0.0
2018-Aug-04 11:30N 45°20' E 036°40'1 1.4
2018-Aug-04 11:01N 45°21' E 036°40'1 1.4
2018-Aug-04 10:30N 45°20' E 036°40'0 0.0
2018-Aug-04 10:00N 45°20' E 036°40'0 0.0
2018-Aug-04 09:30N 45°20' E 036°40'0 0.0
2018-Aug-04 09:00N 45°20' E 036°40'0 0.0
2018-Aug-04 08:30N 45°20' E 036°40'0 0.0
2018-Aug-04 08:00N 45°20' E 036°40'0 0.0
2018-Aug-04 07:30N 45°20' E 036°40'0 0.0
2018-Aug-04 07:00N 45°20' E 036°40'0 0.0
2018-Aug-04 06:30N 45°20' E 036°40'0 0.0
2018-Aug-04 06:00N 45°20' E 036°40'0 0.0
2018-Aug-04 05:29N 45°20' E 036°40'0 0.0
2018-Aug-04 05:00N 45°20' E 036°40'1 2.0
2018-Aug-04 04:30N 45°21' E 036°39'0 0.4
2018-Aug-04 04:01N 45°21' E 036°39'0 0.9
2018-Aug-04 03:30N 45°21' E 036°39'1 1.7
2018-Aug-04 03:00N 45°20' E 036°40'0 0.0
2018-Aug-04 02:30N 45°20' E 036°40'0 0.0
2018-Aug-04 02:00N 45°20' E 036°40'3 6.0
2018-Aug-04 01:30N 45°23' E 036°41'3 1.5
2018-Aug-03 23:25N 45°20' E 036°40'0 0.0
2018-Aug-03 22:58N 45°20' E 036°40'0 0.0
2018-Aug-03 22:24N 45°20' E 036°40'0 0.0
2018-Aug-03 22:00N 45°20' E 036°40'0 0.0
2018-Aug-03 21:30N 45°20' E 036°40'0 0.0
2018-Aug-03 21:00N 45°20' E 036°40'0 0.0
2018-Aug-03 20:30N 45°20' E 036°40'0 0.0
2018-Aug-03 20:00N 45°20' E 036°40'0 0.0
2018-Aug-03 19:27N 45°20' E 036°40'2 4.9
2018-Aug-03 18:57N 45°23' E 036°42'2 5.1
2018-Aug-03 18:30N 45°21' E 036°40'1 1.3
2018-Aug-03 18:00N 45°20' E 036°40'0 0.0
2018-Aug-03 17:30N 45°20' E 036°40'0 0.0
2018-Aug-03 17:00N 45°20' E 036°40'0 0.0
2018-Aug-03 16:30N 45°20' E 036°40'0 0.0
2018-Aug-03 15:54N 45°20' E 036°40'  
Track history (hours):
 
Tides and Currents Weather Stations Pressure Air Temp Water Temp Dewpoint Dewpoint Depression Visibility Wind Speed Wind Dir Waves Ship Positions

Bata

Last reported at 2018-Aug-13 15:45 UTC. Time now 2018-Aug-14 07:00 UTC.
Position N 45°19' E 036°33'.

Length 22 m; draft 1.9 m.

Type: Pilot. MMSI: 273397680.

Date/timePositionNaut miles runAvg speedWind from/ knotsBaromVisibWave heightAir tempDewpointWater temp
2018-Aug-13 15:45N 45°19' E 036°33'2 7.4
2018-Aug-13 15:30N 45°19' E 036°35'4 8.1
2018-Aug-13 15:00N 45°22' E 036°40'0 0.7
2018-Aug-13 14:27N 45°21' E 036°40'0 0.9
2018-Aug-13 14:00N 45°21' E 036°40'1 1.2
2018-Aug-13 13:24N 45°20' E 036°40'0 0.0
2018-Aug-13 11:37N 45°20' E 036°40'1 7.3
2018-Aug-13 11:30N 45°21' E 036°40'1 1.5
2018-Aug-13 10:59N 45°20' E 036°40'0 0.0
2018-Aug-13 10:30N 45°20' E 036°40'0 0.0
2018-Aug-13 10:00N 45°20' E 036°40'0 0.0
2018-Aug-13 09:30N 45°20' E 036°40'0 0.0
2018-Aug-13 08:59N 45°20' E 036°40'0 0.0
2018-Aug-13 08:30N 45°20' E 036°40'0 0.0
2018-Aug-13 08:00N 45°20' E 036°40'0 0.0
2018-Aug-13 07:30N 45°20' E 036°40'0 0.0
2018-Aug-13 07:00N 45°20' E 036°40'0 0.0
2018-Aug-13 06:31N 45°20' E 036°40'0 0.0
2018-Aug-13 06:00N 45°20' E 036°40'0 0.0
2018-Aug-13 05:29N 45°20' E 036°40'0 0.0
2018-Aug-13 05:00N 45°20' E 036°40'0 0.0
2018-Aug-13 04:29N 45°20' E 036°40'0 0.0
2018-Aug-13 03:59N 45°20' E 036°40'0 0.0
2018-Aug-13 03:30N 45°20' E 036°40'0 0.0
2018-Aug-13 03:00N 45°20' E 036°40'0 0.0
2018-Aug-13 02:30N 45°20' E 036°40'0 0.0
2018-Aug-13 01:58N 45°20' E 036°40'0 0.0
2018-Aug-13 01:29N 45°20' E 036°40'0 0.0
2018-Aug-13 01:00N 45°20' E 036°40'0 0.0
2018-Aug-13 00:29N 45°20' E 036°40'0 0.0
2018-Aug-12 23:56N 45°20' E 036°40'0 0.0
2018-Aug-12 23:28N 45°20' E 036°40'0 0.0
2018-Aug-12 22:59N 45°20' E 036°40'0 0.0
2018-Aug-12 22:27N 45°20' E 036°40'0 0.0
2018-Aug-12 21:59N 45°20' E 036°40'0 0.0
2018-Aug-12 21:27N 45°20' E 036°40'0 0.0
2018-Aug-12 21:00N 45°20' E 036°40'0 0.0
2018-Aug-12 20:28N 45°20' E 036°40'0 0.0
2018-Aug-12 19:59N 45°20' E 036°40'0 0.3
2018-Aug-12 19:29N 45°20' E 036°40'0 0.3
2018-Aug-12 19:00N 45°20' E 036°40'0 0.0
2018-Aug-12 18:30N 45°20' E 036°40'0 0.0
2018-Aug-12 18:00N 45°20' E 036°40'0 0.0
2018-Aug-12 17:30N 45°20' E 036°40'0 0.0
2018-Aug-12 17:01N 45°20' E 036°40'1 2.3
2018-Aug-12 16:31N 45°21' E 036°39'1 2.3
2018-Aug-12 16:01N 45°20' E 036°40'0 0.0
2018-Aug-12 15:31N 45°20' E 036°40'0 0.0
2018-Aug-12 14:59N 45°20' E 036°40'0 0.0
2018-Aug-12 14:30N 45°20' E 036°40'0 0.0
2018-Aug-12 13:59N 45°20' E 036°40'0 0.0
2018-Aug-12 13:30N 45°20' E 036°40'1 2.0
2018-Aug-12 13:01N 45°21' E 036°39'0 0.8
2018-Aug-12 12:30N 45°20' E 036°38'0 0.4
2018-Aug-12 12:01N 45°20' E 036°39'0 0.0
2018-Aug-12 11:30N 45°20' E 036°39'1 1.0
2018-Aug-12 11:01N 45°20' E 036°38'0 0.4
2018-Aug-12 10:30N 45°20' E 036°38'2 3.1
2018-Aug-12 10:00N 45°20' E 036°40'0 0.0
2018-Aug-12 09:30N 45°20' E 036°40'0 0.0
2018-Aug-12 09:00N 45°20' E 036°40'0 0.0
2018-Aug-12 08:30N 45°20' E 036°40'2 3.6
2018-Aug-12 08:00N 45°20' E 036°38'0 0.7
2018-Aug-12 07:30N 45°20' E 036°38'0 1.0
2018-Aug-12 07:01N 45°21' E 036°39'1 1.9
2018-Aug-12 06:27N 45°20' E 036°40'0 0.0
2018-Aug-12 06:00N 45°20' E 036°40'0 0.0
2018-Aug-12 05:30N 45°20' E 036°40'0 0.0
2018-Aug-12 05:00N 45°20' E 036°40'0 0.0
2018-Aug-12 04:30N 45°20' E 036°40'2 3.9
2018-Aug-12 04:00N 45°20' E 036°38'2 3.8
2018-Aug-12 03:30N 45°20' E 036°40'0 0.0
2018-Aug-12 03:00N 45°20' E 036°40'0 0.0
2018-Aug-12 02:30N 45°20' E 036°40'0 0.0
2018-Aug-12 02:00N 45°20' E 036°40'0 0.0
2018-Aug-12 01:30N 45°20' E 036°40'0 0.0
2018-Aug-12 01:00N 45°20' E 036°40'0 0.0
2018-Aug-12 00:30N 45°20' E 036°40'0 0.0
2018-Aug-12 00:00N 45°20' E 036°40'0 0.0
2018-Aug-11 23:30N 45°20' E 036°40'0 0.0
2018-Aug-11 23:00N 45°20' E 036°40'0 0.0
2018-Aug-11 22:30N 45°20' E 036°40'0 0.0
2018-Aug-11 22:00N 45°20' E 036°40'0 0.0
2018-Aug-11 21:30N 45°20' E 036°40'0 0.0
2018-Aug-11 21:00N 45°20' E 036°40'0 0.0
2018-Aug-11 20:30N 45°20' E 036°40'0 0.0
2018-Aug-11 20:00N 45°20' E 036°40'0 0.0
2018-Aug-11 19:30N 45°20' E 036°40'0 0.0
2018-Aug-11 19:00N 45°20' E 036°40'0 0.0
2018-Aug-11 18:30N 45°20' E 036°40'0 0.0
2018-Aug-11 18:00N 45°20' E 036°40'0 0.0
2018-Aug-11 17:30N 45°20' E 036°40'0 0.0
2018-Aug-11 17:00N 45°20' E 036°40'0 0.0
2018-Aug-11 16:30N 45°20' E 036°40'0 0.0
2018-Aug-11 16:00N 45°20' E 036°40'0 0.0
2018-Aug-11 15:30N 45°20' E 036°40'0 0.0
2018-Aug-11 15:00N 45°20' E 036°40'0 0.0
2018-Aug-11 14:30N 45°20' E 036°40'0 0.0
2018-Aug-11 14:00N 45°20' E 036°40'0 0.0
2018-Aug-11 13:30N 45°20' E 036°40'0 0.0
2018-Aug-11 13:00N 45°20' E 036°40'0 0.0
2018-Aug-11 12:29N 45°20' E 036°40'0 0.0
2018-Aug-11 12:00N 45°20' E 036°40'0 0.0
2018-Aug-11 11:30N 45°20' E 036°40'0 0.0
2018-Aug-11 11:00N 45°20' E 036°40'0 0.0
2018-Aug-11 10:30N 45°20' E 036°40'0 0.0
2018-Aug-11 09:59N 45°20' E 036°40'0 0.0
2018-Aug-11 09:30N 45°20' E 036°40'0 0.0
2018-Aug-11 09:00N 45°20' E 036°40'0 0.0
2018-Aug-11 08:30N 45°20' E 036°40'0 0.0
2018-Aug-11 08:00N 45°20' E 036°40'0 0.0
2018-Aug-11 07:30N 45°20' E 036°40'0 0.0
2018-Aug-11 07:00N 45°20' E 036°40'0 0.0
2018-Aug-11 06:28N 45°20' E 036°40'0 0.0
2018-Aug-11 06:00N 45°20' E 036°40'0 0.0
2018-Aug-11 05:28N 45°20' E 036°40'0 0.0
2018-Aug-11 05:00N 45°20' E 036°40'0 0.0
2018-Aug-11 04:26N 45°20' E 036°40'0 0.0
2018-Aug-11 04:00N 45°20' E 036°40'0 0.0
2018-Aug-11 03:30N 45°20' E 036°40'0 0.0
2018-Aug-11 03:00N 45°20' E 036°40'0 0.0
2018-Aug-11 02:30N 45°20' E 036°40'0 0.0
2018-Aug-11 02:00N 45°20' E 036°40'0 0.0
2018-Aug-11 01:27N 45°20' E 036°40'0 0.0
2018-Aug-11 01:00N 45°20' E 036°40'0 0.0
2018-Aug-11 00:30N 45°20' E 036°40'0 0.0
2018-Aug-11 00:00N 45°20' E 036°40'0 0.0
2018-Aug-10 23:30N 45°20' E 036°40'0 0.0
2018-Aug-10 23:00N 45°20' E 036°40'0 0.0
2018-Aug-10 22:30N 45°20' E 036°40'0 0.0
2018-Aug-10 22:00N 45°20' E 036°40'0 0.0
2018-Aug-10 21:30N 45°20' E 036°40'0 0.0
2018-Aug-10 21:00N 45°20' E 036°40'0 0.0
2018-Aug-10 20:30N 45°20' E 036°40'0 0.0
2018-Aug-10 20:00N 45°20' E 036°40'0 0.0
2018-Aug-10 19:28N 45°20' E 036°40'0 0.0
2018-Aug-10 19:01N 45°20' E 036°40'0 0.0
2018-Aug-10 18:30N 45°20' E 036°40'0 0.0
2018-Aug-10 18:01N 45°20' E 036°40'0 0.0
2018-Aug-10 17:30N 45°20' E 036°40'0 0.0
2018-Aug-10 17:00N 45°20' E 036°40'0 0.0
2018-Aug-10 16:30N 45°20' E 036°40'0 0.0
2018-Aug-10 16:01N 45°20' E 036°40'0 0.0
2018-Aug-10 15:30N 45°20' E 036°40'0 0.0
2018-Aug-10 15:01N 45°20' E 036°40'0 0.0
2018-Aug-10 14:30N 45°20' E 036°40'0 0.0
2018-Aug-10 13:59N 45°20' E 036°40'0 0.0
2018-Aug-10 13:31N 45°20' E 036°40'0 0.0
2018-Aug-10 13:00N 45°20' E 036°40'0 0.0
2018-Aug-10 12:31N 45°20' E 036°40'0 0.0
2018-Aug-10 12:00N 45°20' E 036°40'0 0.0
2018-Aug-10 11:31N 45°20' E 036°40'0 0.0
2018-Aug-10 11:01N 45°20' E 036°40'0 0.0
2018-Aug-10 10:30N 45°20' E 036°40'0 0.0
2018-Aug-10 10:00N 45°20' E 036°40'0 0.0
2018-Aug-10 09:30N 45°20' E 036°40'0 0.0
2018-Aug-10 08:59N 45°20' E 036°40'0 0.0
2018-Aug-10 08:30N 45°20' E 036°40'0 0.0
2018-Aug-10 08:00N 45°20' E 036°40'0 0.0
2018-Aug-10 07:30N 45°20' E 036°40'0 0.0
2018-Aug-10 07:00N 45°20' E 036°40'0 0.0
2018-Aug-10 06:30N 45°20' E 036°40'0 0.0
2018-Aug-10 06:00N 45°20' E 036°40'0 0.0
2018-Aug-10 05:30N 45°20' E 036°40'0 0.0
2018-Aug-10 05:01N 45°20' E 036°40'0 0.0
2018-Aug-10 04:30N 45°20' E 036°40'0 0.0
2018-Aug-10 04:00N 45°20' E 036°40'0 0.0
2018-Aug-10 03:30N 45°20' E 036°40'0 0.0
2018-Aug-10 03:00N 45°20' E 036°40'0 0.0
2018-Aug-10 02:30N 45°20' E 036°40'0 0.0
2018-Aug-10 02:00N 45°20' E 036°40'0 0.0
2018-Aug-10 01:30N 45°20' E 036°40'0 0.0
2018-Aug-10 01:00N 45°20' E 036°40'0 0.0
2018-Aug-10 00:30N 45°20' E 036°40'0 0.0
2018-Aug-10 00:01N 45°20' E 036°40'0 0.0
2018-Aug-09 23:30N 45°20' E 036°40'0 0.0
2018-Aug-09 23:01N 45°20' E 036°40'0 0.0
2018-Aug-09 22:28N 45°20' E 036°40'0 0.0
2018-Aug-09 21:59N 45°20' E 036°40'0 0.0
2018-Aug-09 21:29N 45°20' E 036°40'0 0.0
2018-Aug-09 21:01N 45°20' E 036°40'0 0.0
2018-Aug-09 20:30N 45°20' E 036°40'0 0.0
2018-Aug-09 20:00N 45°20' E 036°40'0 0.0
2018-Aug-09 19:27N 45°20' E 036°40'0 0.0
2018-Aug-09 19:00N 45°20' E 036°40'0 0.0
2018-Aug-09 18:30N 45°20' E 036°40'0 0.0
2018-Aug-09 18:00N 45°20' E 036°40'0 0.0
2018-Aug-09 17:30N 45°20' E 036°40'0 0.0
2018-Aug-09 17:00N 45°20' E 036°40'0 0.0
2018-Aug-09 16:30N 45°20' E 036°40'0 0.0
2018-Aug-09 16:01N 45°20' E 036°40'0 0.0
2018-Aug-09 15:31N 45°20' E 036°40'0 0.0
2018-Aug-09 15:00N 45°20' E 036°40'0 0.0
2018-Aug-09 14:30N 45°20' E 036°40'0 0.0
2018-Aug-09 14:00N 45°20' E 036°40'0 0.0
2018-Aug-09 13:30N 45°20' E 036°40'0 0.0
2018-Aug-09 13:00N 45°20' E 036°40'0 0.0
2018-Aug-09 12:30N 45°20' E 036°40'0 0.0
2018-Aug-09 12:00N 45°20' E 036°40'0 0.0
2018-Aug-09 11:30N 45°20' E 036°40'0 0.0
2018-Aug-09 11:00N 45°20' E 036°40'0 0.0
2018-Aug-09 10:30N 45°20' E 036°40'0 0.0
2018-Aug-09 10:00N 45°20' E 036°40'0 0.0
2018-Aug-09 09:30N 45°20' E 036°40'0 0.0
2018-Aug-09 09:00N 45°20' E 036°40'0 0.0
2018-Aug-09 08:29N 45°20' E 036°40'0 0.0
2018-Aug-09 07:59N 45°20' E 036°40'0 0.0
2018-Aug-09 07:28N 45°20' E 036°40'0 0.0
2018-Aug-09 07:00N 45°20' E 036°40'0 0.0
2018-Aug-09 06:23N 45°20' E 036°40'0 0.0
2018-Aug-09 05:58N 45°20' E 036°40'0 0.0
2018-Aug-09 05:29N 45°20' E 036°40'0 0.0
2018-Aug-09 04:58N 45°20' E 036°40'0 0.0
2018-Aug-09 04:30N 45°20' E 036°40'0 0.0
2018-Aug-09 03:58N 45°20' E 036°40'0 0.0
2018-Aug-09 03:27N 45°20' E 036°40'0 0.0
2018-Aug-09 00:44N 45°20' E 036°40'0 0.0
2018-Aug-09 00:28N 45°20' E 036°40'0 0.0
2018-Aug-09 00:00N 45°20' E 036°40'0 0.0
2018-Aug-08 23:25N 45°20' E 036°40'0 0.0
2018-Aug-08 22:48N 45°20' E 036°40'0 0.0
2018-Aug-08 22:27N 45°20' E 036°40'0 0.0
2018-Aug-08 22:00N 45°20' E 036°40'0 0.1
2018-Aug-08 21:28N 45°20' E 036°40'0 0.1
2018-Aug-08 20:50N 45°20' E 036°40'0 0.0
2018-Aug-08 20:28N 45°20' E 036°40'0 0.0
2018-Aug-08 19:59N 45°20' E 036°40'0 0.0
2018-Aug-08 19:30N 45°20' E 036°40'0 0.0
2018-Aug-08 19:01N 45°20' E 036°40'0 0.0
2018-Aug-08 18:31N 45°20' E 036°40'0 0.0
2018-Aug-08 18:00N 45°20' E 036°40'0 0.0
2018-Aug-08 17:30N 45°20' E 036°40'0 0.0
2018-Aug-08 17:00N 45°20' E 036°40'0 0.0
2018-Aug-08 16:29N 45°20' E 036°40'0 0.0
2018-Aug-08 16:00N 45°20' E 036°40'0 0.0
2018-Aug-08 15:30N 45°20' E 036°40'0 0.0
2018-Aug-08 15:01N 45°20' E 036°40'0 0.0
2018-Aug-08 14:30N 45°20' E 036°40'0 0.0
2018-Aug-08 14:00N 45°20' E 036°40'0 0.2
2018-Aug-08 13:30N 45°20' E 036°40'0 0.2
2018-Aug-08 13:00N 45°20' E 036°40'0 0.0
2018-Aug-08 12:29N 45°20' E 036°40'0 0.0
2018-Aug-08 11:47N 45°20' E 036°40'0 0.0
2018-Aug-08 11:30N 45°20' E 036°40'0 0.0
2018-Aug-08 10:48N 45°20' E 036°40'1 1.9
2018-Aug-08 10:30N 45°21' E 036°40'2 3.0
2018-Aug-08 10:01N 45°20' E 036°38'2 3.3
2018-Aug-08 09:28N 45°20' E 036°40'0 0.0
2018-Aug-08 09:01N 45°20' E 036°40'0 0.0
2018-Aug-08 08:30N 45°20' E 036°40'0 0.0
2018-Aug-08 08:00N 45°20' E 036°40'0 0.0
2018-Aug-08 07:30N 45°20' E 036°40'0 0.0
2018-Aug-08 06:58N 45°20' E 036°40'0 0.0
2018-Aug-08 06:30N 45°20' E 036°40'0 0.0
2018-Aug-08 06:00N 45°20' E 036°40'0 0.0
2018-Aug-08 05:30N 45°20' E 036°40'0 0.0
2018-Aug-08 05:00N 45°20' E 036°40'1 1.0
2018-Aug-08 04:30N 45°21' E 036°40'1 1.0
2018-Aug-08 03:58N 45°20' E 036°40'0 0.0
2018-Aug-08 03:27N 45°20' E 036°40'1 1.5
2018-Aug-08 03:01N 45°21' E 036°40'1 1.3
2018-Aug-08 02:30N 45°20' E 036°40'0 0.0
2018-Aug-08 01:59N 45°20' E 036°40'0 0.0
2018-Aug-08 01:30N 45°20' E 036°40'0 0.0
2018-Aug-08 00:54N 45°20' E 036°40'0 0.0
2018-Aug-08 00:30N 45°20' E 036°40'0 0.0
2018-Aug-08 00:00N 45°20' E 036°40'0 0.0
2018-Aug-07 23:28N 45°20' E 036°40'0 0.0
2018-Aug-07 22:59N 45°20' E 036°40'0 0.0
2018-Aug-07 22:31N 45°20' E 036°40'0 0.0
2018-Aug-07 22:00N 45°20' E 036°40'0 0.0
2018-Aug-07 21:30N 45°20' E 036°40'0 0.0
2018-Aug-07 21:00N 45°20' E 036°40'0 0.0
2018-Aug-07 20:30N 45°20' E 036°40'0 0.0
2018-Aug-07 19:55N 45°20' E 036°40'0 0.0
2018-Aug-07 19:26N 45°20' E 036°40'0 0.0
2018-Aug-07 19:01N 45°20' E 036°40'0 0.0
2018-Aug-07 18:30N 45°20' E 036°40'0 0.0
2018-Aug-07 18:01N 45°20' E 036°40'0 0.0
2018-Aug-07 17:30N 45°20' E 036°40'0 0.0
2018-Aug-07 17:00N 45°20' E 036°40'0 0.0
2018-Aug-07 16:29N 45°20' E 036°40'1 2.1
2018-Aug-07 16:00N 45°21' E 036°40'0 0.9
2018-Aug-07 15:30N 45°21' E 036°40'1 1.3
2018-Aug-07 14:59N 45°20' E 036°40'0 0.0
2018-Aug-07 14:30N 45°20' E 036°40'0 0.0
2018-Aug-07 14:00N 45°20' E 036°40'0 0.0
2018-Aug-07 13:30N 45°20' E 036°40'0 0.0
2018-Aug-07 12:59N 45°20' E 036°40'0 0.0
2018-Aug-07 12:28N 45°20' E 036°40'0 0.0
2018-Aug-07 11:59N 45°20' E 036°40'0 0.0
2018-Aug-07 11:30N 45°20' E 036°40'0 0.0
2018-Aug-07 11:00N 45°20' E 036°40'0 0.0
2018-Aug-07 10:30N 45°20' E 036°40'0 0.0
2018-Aug-07 10:00N 45°20' E 036°40'0 0.0
2018-Aug-07 09:30N 45°20' E 036°40'0 0.0
2018-Aug-07 08:59N 45°20' E 036°40'0 0.0
2018-Aug-07 08:30N 45°20' E 036°40'0 0.0
2018-Aug-07 08:01N 45°20' E 036°40'0 0.0
2018-Aug-07 07:30N 45°20' E 036°40'0 0.0
2018-Aug-07 06:58N 45°20' E 036°40'0 0.0
2018-Aug-07 06:30N 45°20' E 036°40'0 0.0
2018-Aug-07 05:59N 45°20' E 036°40'0 0.0
2018-Aug-07 05:30N 45°20' E 036°40'0 0.0
2018-Aug-07 04:59N 45°20' E 036°40'0 0.0
2018-Aug-07 04:29N 45°20' E 036°40'0 0.0
2018-Aug-07 03:57N 45°20' E 036°40'0 0.0
2018-Aug-07 03:29N 45°20' E 036°40'0 0.0
2018-Aug-07 02:46N 45°20' E 036°40'0 0.0
2018-Aug-07 02:17N 45°20' E 036°40'1 4.4
2018-Aug-07 02:00N 45°22' E 036°40'0 0.3
2018-Aug-07 01:30N 45°21' E 036°40'1 1.9
2018-Aug-07 00:53N 45°20' E 036°40'0 0.0
2018-Aug-07 00:30N 45°20' E 036°40'0 0.0
2018-Aug-07 00:00N 45°20' E 036°40'0 0.0
2018-Aug-06 23:30N 45°20' E 036°40'0 0.0
2018-Aug-06 23:01N 45°20' E 036°40'0 0.9
2018-Aug-06 22:30N 45°21' E 036°40'0 0.8
2018-Aug-06 22:00N 45°21' E 036°40'1 1.6
2018-Aug-06 21:31N 45°20' E 036°40'0 0.0
2018-Aug-06 21:00N 45°20' E 036°40'0 0.0
2018-Aug-06 20:30N 45°20' E 036°40'0 0.0
2018-Aug-06 20:00N 45°20' E 036°40'0 0.0
2018-Aug-06 19:30N 45°20' E 036°40'0 0.0
2018-Aug-06 19:00N 45°20' E 036°40'0 0.0
2018-Aug-06 18:30N 45°20' E 036°40'0 0.0
2018-Aug-06 18:00N 45°20' E 036°40'0 0.0
2018-Aug-06 17:28N 45°20' E 036°40'0 0.0
2018-Aug-06 16:57N 45°20' E 036°40'0 0.0
2018-Aug-06 16:30N 45°20' E 036°40'0 0.0
2018-Aug-06 16:00N 45°20' E 036°40'0 0.0
2018-Aug-06 15:30N 45°20' E 036°40'0 0.0
2018-Aug-06 15:00N 45°20' E 036°40'0 0.0
2018-Aug-06 14:31N 45°20' E 036°40'0 0.0
2018-Aug-06 14:00N 45°20' E 036°40'0 0.0
2018-Aug-06 13:30N 45°20' E 036°40'0 0.0
2018-Aug-06 13:00N 45°20' E 036°40'1 1.2
2018-Aug-06 12:30N 45°21' E 036°40'1 1.7
2018-Aug-06 12:00N 45°21' E 036°39'0 0.1
2018-Aug-06 11:30N 45°21' E 036°39'1 2.2
2018-Aug-06 11:00N 45°20' E 036°40'0 0.0
2018-Aug-06 10:30N 45°20' E 036°40'0 0.0
2018-Aug-06 10:00N 45°20' E 036°40'0 0.0
2018-Aug-06 09:30N 45°20' E 036°40'0 0.0
2018-Aug-06 09:00N 45°20' E 036°40'0 0.0
2018-Aug-06 08:30N 45°20' E 036°40'0 0.0
2018-Aug-06 08:00N 45°20' E 036°40'0 0.0
2018-Aug-06 07:30N 45°20' E 036°40'0 0.0
2018-Aug-06 07:00N 45°20' E 036°40'0 0.0
2018-Aug-06 06:30N 45°20' E 036°40'0 0.0
2018-Aug-06 06:00N 45°20' E 036°40'0 0.0
2018-Aug-06 05:30N 45°20' E 036°40'0 0.0
2018-Aug-06 05:00N 45°20' E 036°40'0 0.0
2018-Aug-06 04:30N 45°20' E 036°40'1 2.2
2018-Aug-06 04:00N 45°21' E 036°39'1 2.1
2018-Aug-06 03:30N 45°20' E 036°40'0 0.1
2018-Aug-06 02:58N 45°20' E 036°40'0 0.0
2018-Aug-06 02:30N 45°20' E 036°40'0 0.0
2018-Aug-06 02:00N 45°20' E 036°40'0 0.0
2018-Aug-06 01:29N 45°20' E 036°40'0 0.0
2018-Aug-06 01:00N 45°20' E 036°40'0 0.0
2018-Aug-06 00:30N 45°20' E 036°40'1 1.7
2018-Aug-06 00:00N 45°21' E 036°39'1 1.6
2018-Aug-05 23:27N 45°20' E 036°40'0 0.0
2018-Aug-05 22:52N 45°20' E 036°40'0 0.0
2018-Aug-05 22:29N 45°20' E 036°40'0 0.0
2018-Aug-05 22:00N 45°20' E 036°40'1 1.8
2018-Aug-05 21:31N 45°21' E 036°40'1 1.3
2018-Aug-05 20:51N 45°20' E 036°40'0 0.0
2018-Aug-05 20:29N 45°20' E 036°40'0 0.0
2018-Aug-05 20:00N 45°20' E 036°40'0 0.0
2018-Aug-05 19:28N 45°20' E 036°40'0 0.0
2018-Aug-05 18:39N 45°20' E 036°40'0 0.0
2018-Aug-05 18:30N 45°20' E 036°40'0 0.0
2018-Aug-05 18:00N 45°20' E 036°40'0 0.0
2018-Aug-05 17:30N 45°20' E 036°40'1 1.4
2018-Aug-05 17:00N 45°21' E 036°40'1 1.4
2018-Aug-05 16:30N 45°20' E 036°40'0 0.0
2018-Aug-05 16:00N 45°20' E 036°40'0 0.0
2018-Aug-05 15:30N 45°20' E 036°40'0 0.0
2018-Aug-05 15:00N 45°20' E 036°40'0 0.0
2018-Aug-05 14:30N 45°20' E 036°40'0 0.0
2018-Aug-05 13:30N 45°20' E 036°40'0 0.0
2018-Aug-05 13:00N 45°20' E 036°40'0 0.0
2018-Aug-05 12:30N 45°20' E 036°40'0 0.0
2018-Aug-05 12:00N 45°20' E 036°40'0 0.0
2018-Aug-05 11:30N 45°20' E 036°40'0 0.0
2018-Aug-05 10:59N 45°20' E 036°40'0 0.0
2018-Aug-05 10:30N 45°20' E 036°40'0 0.0
2018-Aug-05 10:00N 45°20' E 036°40'0 0.0
2018-Aug-05 09:30N 45°20' E 036°40'0 0.3
2018-Aug-05 09:00N 45°20' E 036°40'0 0.1
2018-Aug-05 08:31N 45°20' E 036°40'2 3.1
2018-Aug-05 08:00N 45°22' E 036°42'0 0.0
2018-Aug-05 07:30N 45°22' E 036°42'1 2.0
2018-Aug-05 07:00N 45°21' E 036°40'1 2.2
2018-Aug-05 06:29N 45°20' E 036°40'0 0.0
2018-Aug-05 06:00N 45°20' E 036°40'1 1.5
2018-Aug-05 05:30N 45°21' E 036°40'0 0.6
2018-Aug-05 05:00N 45°21' E 036°40'1 1.7
2018-Aug-05 04:30N 45°20' E 036°40'0 0.0
2018-Aug-05 03:59N 45°20' E 036°40'0 0.0
2018-Aug-05 03:23N 45°20' E 036°40'0 0.0
2018-Aug-05 02:55N 45°20' E 036°40'0 0.0
2018-Aug-05 02:29N 45°20' E 036°40'0 0.0
2018-Aug-05 01:48N 45°20' E 036°40'0 0.0
2018-Aug-05 01:27N 45°20' E 036°40'0 0.0
2018-Aug-05 01:00N 45°20' E 036°40'0 0.0
2018-Aug-05 00:30N 45°20' E 036°40'0 0.0
2018-Aug-05 00:00N 45°20' E 036°40'0 0.0
2018-Aug-04 23:28N 45°20' E 036°40'0 0.0
2018-Aug-04 22:47N 45°20' E 036°40'0 0.0
2018-Aug-04 22:27N 45°20' E 036°40'0 0.0
2018-Aug-04 22:00N 45°20' E 036°40'0 0.0
2018-Aug-04 21:30N 45°20' E 036°40'0 0.0
2018-Aug-04 21:00N 45°20' E 036°40'0 0.0
2018-Aug-04 20:21N 45°20' E 036°40'0 0.0
2018-Aug-04 19:58N 45°20' E 036°40'0 0.0
2018-Aug-04 19:30N 45°20' E 036°40'0 0.0
2018-Aug-04 19:00N 45°20' E 036°40'0 0.0
2018-Aug-04 16:54N 45°20' E 036°40'0 0.0
2018-Aug-04 16:28N 45°20' E 036°40'1 2.0
2018-Aug-04 16:00N 45°21' E 036°41'1 1.4
2018-Aug-04 15:30N 45°21' E 036°40'0 0.8
2018-Aug-04 15:00N 45°20' E 036°40'0 0.0
2018-Aug-04 14:30N 45°20' E 036°40'0 0.0
2018-Aug-04 14:00N 45°20' E 036°40'0 0.0
2018-Aug-04 13:30N 45°20' E 036°40'0 0.0
2018-Aug-04 13:00N 45°20' E 036°40'0 0.0
2018-Aug-04 12:30N 45°20' E 036°40'0 0.0
2018-Aug-04 12:00N 45°20' E 036°40'0 0.0
2018-Aug-04 11:30N 45°20' E 036°40'1 1.4
2018-Aug-04 11:01N 45°21' E 036°40'1 1.4
2018-Aug-04 10:30N 45°20' E 036°40'0 0.0
2018-Aug-04 10:00N 45°20' E 036°40'0 0.0
2018-Aug-04 09:30N 45°20' E 036°40'0 0.0
2018-Aug-04 09:00N 45°20' E 036°40'0 0.0
2018-Aug-04 08:30N 45°20' E 036°40'0 0.0
2018-Aug-04 08:00N 45°20' E 036°40'0 0.0
2018-Aug-04 07:30N 45°20' E 036°40'0 0.0
2018-Aug-04 07:00N 45°20' E 036°40'0 0.0
2018-Aug-04 06:30N 45°20' E 036°40'0 0.0
2018-Aug-04 06:00N 45°20' E 036°40'0 0.0
2018-Aug-04 05:29N 45°20' E 036°40'0 0.0
2018-Aug-04 05:00N 45°20' E 036°40'1 2.0
2018-Aug-04 04:30N 45°21' E 036°39'0 0.4
2018-Aug-04 04:01N 45°21' E 036°39'0 0.9
2018-Aug-04 03:30N 45°21' E 036°39'1 1.7
2018-Aug-04 03:00N 45°20' E 036°40'0 0.0
2018-Aug-04 02:30N 45°20' E 036°40'0 0.0
2018-Aug-04 02:00N 45°20' E 036°40'3 6.0
2018-Aug-04 01:30N 45°23' E 036°41'3 1.5
2018-Aug-03 23:25N 45°20' E 036°40'0 0.0
2018-Aug-03 22:58N 45°20' E 036°40'0 0.0
2018-Aug-03 22:24N 45°20' E 036°40'0 0.0
2018-Aug-03 22:00N 45°20' E 036°40'0 0.0
2018-Aug-03 21:30N 45°20' E 036°40'0 0.0
2018-Aug-03 21:00N 45°20' E 036°40'0 0.0
2018-Aug-03 20:30N 45°20' E 036°40'0 0.0
2018-Aug-03 20:00N 45°20' E 036°40'0 0.0
2018-Aug-03 19:27N 45°20' E 036°40'2 4.9
2018-Aug-03 18:57N 45°23' E 036°42'2 5.1
2018-Aug-03 18:30N 45°21' E 036°40'1 1.3
2018-Aug-03 18:00N 45°20' E 036°40'0 0.0
2018-Aug-03 17:30N 45°20' E 036°40'0 0.0
2018-Aug-03 17:00N 45°20' E 036°40'0 0.0
2018-Aug-03 16:30N 45°20' E 036°40'0 0.0
2018-Aug-03 15:54N 45°20' E 036°40'  

Dump ship's entire track history